Time;durP1;ratioP1;P1;durP2;ratioP2;P2;SDS_P1;SDS_P2;PMS_P1;PMS_P2;Temp;Humidity;BMP_temperature;BMP_pressure;BME280_temperature;BME280_humidity;BME280_pressure;Samples;Min_cycle;Max_cycle;Signal;HPM_P1;HPM_P2
2023/01/25 00:00:12;;;;;;;77.40;20.25;;;;;;;-0.76;100.00;97298.19;1043247;28;20032;-68
2023/01/25 00:00:42;;;;;;;75.03;21.02;;;;;;;-0.70;100.00;97307.09;1044915;28;20041;-69
2023/01/25 00:01:13;;;;;;;82.97;21.08;;;;;;;-0.67;100.00;97311.94;1035654;28;20034;-70
2023/01/25 00:01:43;;;;;;;85.68;21.60;;;;;;;-0.63;100.00;97307.28;1035454;28;20554;-69
2023/01/25 00:02:14;;;;;;;83.28;20.98;;;;;;;-0.63;100.00;97309.84;1035094;28;20239;-68
2023/01/25 00:02:44;;;;;;;76.68;20.23;;;;;;;-0.65;100.00;97311.78;1039114;28;20026;-71
2023/01/25 00:03:14;;;;;;;85.70;20.50;;;;;;;-0.67;100.00;97313.69;1039317;28;20037;-68
2023/01/25 00:03:45;;;;;;;72.65;19.75;;;;;;;-0.65;100.00;97311.78;1039260;28;20029;-69
2023/01/25 00:04:15;;;;;;;87.60;20.80;;;;;;;-0.65;100.00;97309.19;1041453;28;20579;-69
2023/01/25 00:04:46;;;;;;;77.85;20.27;;;;;;;-0.66;100.00;97307.59;1043776;28;20028;-68
2023/01/25 00:05:16;;;;;;;65.97;19.70;;;;;;;-0.65;100.00;97314.34;1039186;28;20095;-70
2023/01/25 00:05:47;;;;;;;75.75;20.85;;;;;;;-0.67;100.00;97301.63;1035675;28;20030;-68
2023/01/25 00:06:17;;;;;;;84.65;21.27;;;;;;;-0.65;100.00;97309.19;1032180;28;20026;-68
2023/01/25 00:06:48;;;;;;;72.00;20.67;;;;;;;-0.71;100.00;97295.94;1034887;28;20042;-69
2023/01/25 00:07:18;;;;;;;77.07;20.48;;;;;;;-0.64;100.00;97306.44;1035030;28;20061;-69
2023/01/25 00:07:49;;;;;;;95.22;21.90;;;;;;;-0.62;100.00;97306.31;1037207;28;20097;-69
2023/01/25 00:08:20;;;;;;;75.00;19.10;;;;;;;-0.64;100.00;97310.81;1030787;28;20034;-68
2023/01/25 00:08:50;;;;;;;65.28;20.28;;;;;;;-0.65;100.00;97307.41;1031548;28;20084;-71
2023/01/25 00:09:21;;;;;;;69.38;19.50;;;;;;;-0.73;100.00;97297.88;1036979;28;20108;-69
2023/01/25 00:09:52;;;;;;;71.43;19.42;;;;;;;-0.63;100.00;97312.44;1039459;28;20056;-68
2023/01/25 00:10:22;;;;;;;74.53;19.17;;;;;;;-0.65;100.00;97307.41;1039033;28;20029;-69
2023/01/25 00:10:53;;;;;;;74.97;21.08;;;;;;;-0.64;100.00;97309.03;1039124;28;20434;-70
2023/01/25 00:11:23;;;;;;;69.45;18.45;;;;;;;-0.71;100.00;97305.44;1043017;28;20033;-68
2023/01/25 00:11:56;;;;;;;66.65;19.27;;;;;;;-0.68;100.00;97307.72;1034937;28;20581;-68
2023/01/25 00:12:27;;;;;;;73.36;18.88;;;;;;;-0.66;100.00;97308.38;1039145;28;20483;-71
2023/01/25 00:12:57;;;;;;;72.80;19.77;;;;;;;-0.66;100.00;97310.16;1043604;28;20060;-68
2023/01/25 00:13:28;;;;;;;66.45;19.13;;;;;;;-0.69;100.00;97303.53;1038899;28;20029;-68
2023/01/25 00:13:58;;;;;;;80.00;21.77;;;;;;;-0.65;100.00;97311.78;1035494;28;20041;-68
2023/01/25 00:14:29;;;;;;;74.63;20.13;;;;;;;-0.61;100.00;97310.50;1034865;28;20029;-70
2023/01/25 00:14:59;;;;;;;80.22;20.70;;;;;;;-0.62;100.00;97314.84;1030957;28;20038;-67
2023/01/25 00:15:30;;;;;;;76.25;20.67;;;;;;;-0.64;100.00;97311.59;1034585;28;20637;-65
2023/01/25 00:16:03;;;;;;;83.15;20.98;;;;;;;-0.66;100.00;97307.59;1026596;28;20047;-68
2023/01/25 00:16:34;;;;;;;71.44;19.46;;;;;;;-0.61;100.00;97311.31;1026855;28;20102;-68
2023/01/25 00:17:05;;;;;;;71.32;19.18;;;;;;;-0.63;100.00;97305.50;1028029;28;20030;-71
2023/01/25 00:17:35;;;;;;;73.72;18.55;;;;;;;-0.62;100.00;97311.47;1035876;28;20037;-68
2023/01/25 00:18:06;;;;;;;74.95;20.80;;;;;;;-0.62;100.00;97306.31;1040838;28;20079;-69
2023/01/25 00:18:36;;;;;;;75.72;19.30;;;;;;;-0.64;100.00;97315.97;1039086;28;20748;-69
2023/01/25 00:19:07;;;;;;;74.57;19.27;;;;;;;-0.63;100.00;97304.72;1034802;28;20026;-69
2023/01/25 00:19:38;;;;;;;66.55;20.23;;;;;;;-0.64;100.00;97300.50;1037385;28;20029;-69
2023/01/25 00:20:09;;;;;;;72.82;19.80;;;;;;;-0.64;100.00;97301.28;1030601;28;20317;-69
2023/01/25 00:20:39;;;;;;;69.14;19.94;;;;;;;-0.60;100.00;97312.13;1030672;28;20037;-69
2023/01/25 00:21:14;;;;;;;92.47;21.65;;;;;;;-0.59;100.00;97303.44;1036823;28;20553;-69
2023/01/25 00:21:44;;;;;;;74.14;22.20;;;;;;;-0.60;100.00;97296.66;1034786;28;20026;-68
2023/01/25 00:22:15;;;;;;;70.00;20.73;;;;;;;-0.60;100.00;97306.97;1036388;28;20032;-72
2023/01/25 00:22:45;;;;;;;82.72;20.05;;;;;;;-0.58;100.00;97307.63;1044038;28;20017;-69
2023/01/25 00:23:16;;;;;;;71.35;19.58;;;;;;;-0.60;100.00;97302.63;1042907;28;20013;-68
2023/01/25 00:23:46;;;;;;;72.90;19.92;;;;;;;-0.59;100.00;97306.00;1035106;28;20765;-68
2023/01/25 00:24:17;;;;;;;65.45;19.48;;;;;;;-0.58;100.00;97297.31;1034631;28;20018;-70
2023/01/25 00:24:47;;;;;;;80.50;20.10;;;;;;;-0.59;100.00;97301.66;1032503;28;20034;-69
2023/01/25 00:25:17;;;;;;;60.78;18.05;;;;;;;-0.57;100.00;97301.50;1031087;28;20053;-68
2023/01/25 00:25:48;;;;;;;66.05;19.75;;;;;;;-0.61;100.00;97289.88;1033940;28;20021;-68
2023/01/25 00:26:18;;;;;;;64.57;18.88;;;;;;;-0.52;100.00;97296.69;1037217;28;20522;-68
2023/01/25 00:26:49;;;;;;;68.63;19.92;;;;;;;-0.52;100.00;97294.13;1038991;28;20025;-72
2023/01/25 00:27:19;;;;;;;69.18;20.80;;;;;;;-0.56;100.00;97300.56;1034756;28;20034;-69
2023/01/25 00:27:51;;;;;;;74.30;20.67;;;;;;;-0.55;100.00;97289.25;1035502;28;20014;-68
2023/01/25 00:28:21;;;;;;;74.10;19.24;;;;;;;-0.58;100.00;97281.84;1039986;28;20791;-70
2023/01/25 00:28:52;;;;;;;68.97;19.13;;;;;;;-0.54;100.00;97296.88;1026750;28;20029;-68
2023/01/25 00:29:23;;;;;;;81.38;20.36;;;;;;;-0.54;100.00;97296.03;1030953;28;20473;-69
2023/01/25 00:29:53;;;;;;;72.57;20.65;;;;;;;-0.54;100.00;97296.03;1032509;28;20088;-70
2023/01/25 00:30:24;;;;;;;68.25;20.33;;;;;;;-0.52;100.00;97294.13;1031148;28;20031;-69
2023/01/25 00:31:01;;;;;;;66.63;19.33;;;;;;;-0.51;100.00;97295.72;1034828;28;20028;-69
2023/01/25 00:31:39;;;;;;;63.80;18.44;;;;;;;-0.50;100.00;97297.38;1038784;28;20018;-70
2023/01/25 00:32:10;;;;;;;68.30;18.44;;;;;;;-0.53;100.00;97292.50;1034676;28;20022;-69
2023/01/25 00:32:53;;;;;;;71.95;20.13;;;;;;;-0.57;100.00;97291.19;1034800;28;20503;-68
2023/01/25 00:33:34;;;;;;;70.44;19.68;;;;;;;-0.57;100.00;97293.75;1033618;28;20018;-69
2023/01/25 00:34:46;;;;;;;74.72;19.82;;;;;;;-0.54;100.00;97288.28;1044193;28;20422;-68
2023/01/25 00:35:16;;;;;;;63.30;17.54;;;;;;;-0.56;100.00;97295.41;1041833;28;20092;-68
2023/01/25 00:35:47;;;;;;;72.15;18.65;;;;;;;-0.63;100.00;97289.25;1032124;28;20140;-72
2023/01/25 00:36:36;;;;;;;81.60;19.18;;;;;;;-0.55;100.00;97299.56;1034684;28;20022;-70
2023/01/25 00:37:16;;;;;;;75.94;19.82;;;;;;;-0.54;100.00;97302.03;1041961;28;20465;-67
2023/01/25 00:37:48;;;;;;;76.72;18.40;;;;;;;-0.53;100.00;97297.66;1043060;28;20787;-69
2023/01/25 00:38:33;;;;;;;63.44;18.54;;;;;;;-0.54;100.00;97298.59;1030748;28;20049;-70
2023/01/25 00:39:04;;;;;;;69.02;18.52;;;;;;;-0.53;100.00;97305.41;1033247;28;20578;-69
2023/01/25 00:39:35;;;;;;;72.96;19.64;;;;;;;-0.62;100.00;97293.44;1038852;28;20060;-68
2023/01/25 00:40:12;;;;;;;59.63;19.08;;;;;;;-0.62;100.00;97296.81;1030911;28;20041;-69
2023/01/25 00:40:43;;;;;;;63.36;19.26;;;;;;;-0.64;100.00;97292.75;1035396;28;20080;-68
2023/01/25 00:41:13;;;;;;;76.00;19.58;;;;;;;-0.58;100.00;97294.72;1031724;28;20037;-70
2023/01/25 00:41:44;;;;;;;75.55;19.58;;;;;;;-0.57;100.00;97294.59;1038942;28;20033;-69
2023/01/25 00:42:15;;;;;;;71.25;18.88;;;;;;;-0.62;100.00;97285.69;1038046;28;20025;-68
2023/01/25 00:42:45;;;;;;;68.68;20.22;;;;;;;-0.57;100.00;97294.59;1030820;28;20088;-68
2023/01/25 00:43:16;;;;;;;70.65;18.67;;;;;;;-0.59;100.00;97290.53;1030742;28;20062;-69
2023/01/25 00:43:46;;;;;;;77.13;20.65;;;;;;;-0.51;100.00;97298.31;1034784;28;20077;-69
2023/01/25 00:44:17;;;;;;;67.55;20.48;;;;;;;-0.51;100.00;97301.69;1030622;28;20131;-69
2023/01/25 00:44:47;;;;;;;69.65;18.90;;;;;;;-0.50;100.00;97303.31;1030717;28;20034;-69
2023/01/25 00:45:18;;;;;;;65.97;18.63;;;;;;;-0.51;100.00;97300.88;1034829;28;20158;-68
2023/01/25 00:45:48;;;;;;;63.55;19.00;;;;;;;-0.47;100.00;97302.19;1034178;28;20030;-70
2023/01/25 00:46:18;;;;;;;72.38;19.60;;;;;;;-0.52;100.00;97299.28;1030808;28;20030;-68
2023/01/25 00:46:49;;;;;;;70.47;18.33;;;;;;;-0.57;100.00;97286.03;1026713;28;20030;-68
2023/01/25 00:47:19;;;;;;;79.15;20.65;;;;;;;-0.50;100.00;97302.53;1037645;28;20033;-69
2023/01/25 00:47:53;;;;;;;60.95;18.52;;;;;;;-0.52;100.00;97294.13;1038913;28;20043;-70
2023/01/25 00:48:24;;;;;;;83.06;19.56;;;;;;;-0.51;100.00;97299.09;1043041;28;20036;-68
2023/01/25 00:48:54;;;;;;;66.93;19.05;;;;;;;-0.50;100.00;97300.75;1034672;28;20112;-69
2023/01/25 00:49:26;;;;;;;57.72;17.85;;;;;;;-0.51;100.00;97296.53;1037968;28;20022;-69
2023/01/25 00:49:56;;;;;;;65.56;19.30;;;;;;;-0.50;100.00;97298.16;1030823;28;20023;-69
2023/01/25 00:50:26;;;;;;;74.10;20.05;;;;;;;-0.51;100.00;97290.56;1034938;28;20088;-70
2023/01/25 00:51:00;;;;;;;70.03;19.17;;;;;;;-0.49;100.00;97294.63;1038775;28;20037;-70
2023/01/25 00:51:31;;;;;;;70.34;19.60;;;;;;;-0.49;100.00;97289.47;1038728;28;20094;-70
2023/01/25 00:52:01;;;;;;;62.25;17.42;;;;;;;-0.49;100.00;97289.47;1030574;28;20339;-69
2023/01/25 00:52:32;;;;;;;59.63;18.20;;;;;;;-0.53;100.00;97293.31;1024813;28;20046;-68
2023/01/25 00:53:02;;;;;;;58.10;17.75;;;;;;;-0.55;100.00;97289.25;1030587;28;20488;-68
2023/01/25 00:53:33;;;;;;;59.05;17.48;;;;;;;-0.58;100.00;97276.69;1031027;28;20120;-70
2023/01/25 00:54:03;;;;;;;60.80;18.63;;;;;;;-0.55;100.00;97286.69;1034922;28;20109;-68
2023/01/25 00:54:34;;;;;;;63.53;18.20;;;;;;;-0.57;100.00;97281.69;1043014;28;20017;-68
2023/01/25 00:55:05;;;;;;;65.05;17.52;;;;;;;-0.54;100.00;97294.28;1034873;28;20034;-68
2023/01/25 00:55:35;;;;;;;65.20;19.23;;;;;;;-0.55;100.00;97286.69;1038483;28;20577;-68
2023/01/25 00:56:06;;;;;;;62.20;18.65;;;;;;;-0.54;100.00;97291.72;1033720;28;20018;-69
2023/01/25 00:56:36;;;;;;;72.60;20.10;;;;;;;-0.54;100.00;97293.44;1029799;28;20026;-69
2023/01/25 00:57:07;;;;;;;65.30;19.02;;;;;;;-0.58;100.00;97279.25;1038337;28;20026;-69
2023/01/25 00:57:38;;;;;;;56.67;17.42;;;;;;;-0.52;100.00;97294.13;1026499;28;20084;-67
2023/01/25 00:58:08;;;;;;;55.35;17.13;;;;;;;-0.52;100.00;97286.38;1030495;28;20077;-70
2023/01/25 00:58:39;;;;;;;61.30;18.50;;;;;;;-0.53;100.00;97285.59;1034563;28;20030;-72
2023/01/25 00:59:10;;;;;;;61.12;18.04;;;;;;;-0.51;100.00;97290.56;1039278;28;20029;-69
2023/01/25 00:59:43;;;;;;;57.17;18.67;;;;;;;-0.51;100.00;97290.56;1042545;28;20131;-70
2023/01/25 01:00:14;;;;;;;61.98;18.06;;;;;;;-0.53;100.00;97288.16;1038540;28;20033;-68
2023/01/25 01:00:44;;;;;;;62.62;19.70;;;;;;;-0.54;100.00;97280.56;1030744;28;20065;-71
2023/01/25 01:01:15;;;;;;;61.85;18.98;;;;;;;-0.49;100.00;97288.66;1034292;28;20081;-69
2023/01/25 01:01:45;;;;;;;65.75;19.33;;;;;;;-0.52;100.00;97283.81;1038744;28;20028;-69
2023/01/25 01:02:16;;;;;;;59.97;18.52;;;;;;;-0.56;100.00;97285.09;1030698;28;20109;-68
2023/01/25 01:02:46;;;;;;;59.53;20.50;;;;;;;-0.51;100.00;97291.38;1034230;28;20077;-68
2023/01/25 01:03:17;;;;;;;61.88;20.05;;;;;;;-0.53;100.00;97279.63;1038967;28;20036;-69
2023/01/25 01:03:47;;;;;;;63.22;18.73;;;;;;;-0.48;100.00;97282.53;1038568;28;20017;-68
2023/01/25 01:04:18;;;;;;;63.17;19.48;;;;;;;-0.48;100.00;97291.06;1034438;28;20057;-68
2023/01/25 01:04:49;;;;;;;65.16;19.26;;;;;;;-0.48;100.00;97285.91;1034934;28;20029;-68
2023/01/25 01:05:19;;;;;;;62.20;18.25;;;;;;;-0.48;100.00;97295.41;1038554;28;20033;-68
2023/01/25 01:06:04;;;;;;;68.25;19.85;;;;;;;-0.52;100.00;97283.81;1034104;28;20025;-67
2023/01/25 01:06:35;;;;;;;67.94;19.80;;;;;;;-0.51;100.00;97285.41;1027524;28;20029;-68
2023/01/25 01:07:05;;;;;;;69.48;17.96;;;;;;;-0.49;100.00;97293.81;1025591;28;20862;-69
2023/01/25 01:07:36;;;;;;;66.63;20.33;;;;;;;-0.50;100.00;97292.22;1022394;29;20083;-68
2023/01/25 01:08:06;;;;;;;64.40;19.48;;;;;;;-0.50;100.00;97289.63;1030330;28;20069;-67
2023/01/25 01:08:40;;;;;;;63.08;19.75;;;;;;;-0.48;100.00;97290.25;1038785;28;20018;-69
2023/01/25 01:09:14;;;;;;;67.92;18.72;;;;;;;-0.48;100.00;97287.69;1031030;28;20031;-70
2023/01/25 01:09:45;;;;;;;66.06;19.46;;;;;;;-0.48;100.00;97290.25;1033602;28;20026;-70
2023/01/25 01:10:15;;;;;;;67.47;20.10;;;;;;;-0.49;100.00;97286.06;1034805;28;20033;-69
2023/01/25 01:10:46;;;;;;;68.72;18.85;;;;;;;-0.47;100.00;97291.88;1035070;28;20116;-69
2023/01/25 01:11:16;;;;;;;69.88;19.73;;;;;;;-0.45;100.00;97278.84;1028950;28;20030;-69
2023/01/25 01:11:47;;;;;;;70.32;19.77;;;;;;;-0.44;100.00;97288.97;1030369;28;20093;-71
2023/01/25 01:12:17;;;;;;;77.65;20.50;;;;;;;-0.44;100.00;97286.41;1034513;28;20026;-68
2023/01/25 01:12:48;;;;;;;70.93;22.58;;;;;;;-0.42;100.00;97283.69;1034522;28;20041;-69
2023/01/25 01:13:18;;;;;;;67.65;20.73;;;;;;;-0.43;100.00;97282.09;1034701;28;20060;-68
2023/01/25 01:13:49;;;;;;;67.57;19.33;;;;;;;-0.43;100.00;97287.25;1038700;28;20022;-68
2023/01/25 01:14:20;;;;;;;77.45;21.38;;;;;;;-0.52;100.00;97263.97;1038143;28;20049;-68
2023/01/25 01:14:50;;;;;;;69.90;20.48;;;;;;;-0.50;100.00;97271.59;1037814;28;20503;-69
2023/01/25 01:15:21;;;;;;;66.32;20.42;;;;;;;-0.48;100.00;97275.59;1030453;28;20014;-71
2023/01/25 01:15:51;;;;;;;61.15;18.73;;;;;;;-0.49;100.00;97274.00;1033821;28;20026;-69
2023/01/25 01:16:22;;;;;;;79.22;20.23;;;;;;;-0.50;100.00;97267.22;1034186;28;20025;-68
2023/01/25 01:16:52;;;;;;;77.63;21.30;;;;;;;-0.46;100.00;97283.19;1039079;28;20092;-68
2023/01/25 01:17:23;;;;;;;74.95;20.27;;;;;;;-0.53;100.00;97266.72;1042708;28;20550;-69
2023/01/25 01:17:53;;;;;;;61.58;19.55;;;;;;;-0.46;100.00;97274.66;1038475;28;20068;-69
2023/01/25 01:18:24;;;;;;;64.50;19.90;;;;;;;-0.44;100.00;97277.88;1034417;28;20037;-69
2023/01/25 01:18:54;;;;;;;68.80;19.90;;;;;;;-0.45;100.00;97268.53;1030371;28;20519;-70
2023/01/25 01:19:24;;;;;;;82.32;22.10;;;;;;;-0.46;100.00;97272.06;1030445;28;20030;-68
2023/01/25 01:19:55;;;;;;;72.18;22.20;;;;;;;-0.45;100.00;97273.69;1037886;28;20017;-69
2023/01/25 01:20:25;;;;;;;74.97;21.13;;;;;;;-0.44;100.00;97275.28;1042447;28;20036;-68
2023/01/25 01:20:56;;;;;;;64.95;19.02;;;;;;;-0.54;100.00;97265.09;1042905;28;20020;-68
2023/01/25 01:21:27;;;;;;;64.63;20.30;;;;;;;-0.46;100.00;97272.06;1040066;28;20029;-68
2023/01/25 01:21:57;;;;;;;58.78;18.33;;;;;;;-0.44;100.00;97270.13;1038720;28;20709;-70
2023/01/25 01:22:27;;;;;;;65.93;19.90;;;;;;;-0.43;100.00;97282.88;1038449;28;20221;-68
2023/01/25 01:23:01;;;;;;;66.15;19.65;;;;;;;-0.44;100.00;97283.81;1034168;28;20022;-68
2023/01/25 01:23:31;;;;;;;68.96;19.86;;;;;;;-0.44;100.00;97281.25;1030908;28;20447;-68
2023/01/25 01:24:02;;;;;;;64.80;19.75;;;;;;;-0.42;100.00;97281.09;1030975;28;20034;-69
2023/01/25 01:24:32;;;;;;;60.58;18.92;;;;;;;-0.42;100.00;97284.50;1030849;28;20537;-68
2023/01/25 01:25:03;;;;;;;68.28;19.50;;;;;;;-0.48;100.00;97269.63;1037966;28;20478;-69
2023/01/25 01:25:34;;;;;;;56.00;19.33;;;;;;;-0.43;100.00;97282.09;1034117;28;20041;-68
2023/01/25 01:26:06;;;;;;;66.63;19.63;;;;;;;-0.43;100.00;97277.72;1030082;28;20030;-70
2023/01/25 01:26:36;;;;;;;60.36;19.12;;;;;;;-0.47;100.00;97276.41;1034268;28;20081;-68
2023/01/25 01:27:07;;;;;;;64.45;18.55;;;;;;;-0.42;100.00;97281.91;1034332;28;20586;-70
2023/01/25 01:27:37;;;;;;;57.17;19.58;;;;;;;-0.51;100.00;97264.78;1034841;28;20034;-70
2023/01/25 01:28:07;;;;;;;66.40;19.23;;;;;;;-0.43;100.00;97282.88;1027097;28;20669;-69
2023/01/25 01:28:38;;;;;;;63.90;20.40;;;;;;;-0.43;100.00;97280.31;1034512;28;20021;-67
2023/01/25 01:29:09;;;;;;;60.10;18.58;;;;;;;-0.42;100.00;97276.75;1034718;28;20065;-71
2023/01/25 01:29:39;;;;;;;70.40;20.05;;;;;;;-0.41;100.00;97282.72;1034561;28;20107;-67
2023/01/25 01:30:10;;;;;;;71.97;22.08;;;;;;;-0.40;100.00;97277.41;1038489;28;20398;-68
2023/01/25 01:30:40;;;;;;;64.28;18.30;;;;;;;-0.47;100.00;97268.66;1034432;28;20080;-68
2023/01/25 01:31:16;;;;;;;61.13;19.30;;;;;;;-0.39;100.00;97268.72;1026652;28;20026;-70
2023/01/25 01:31:50;;;;;;;59.66;18.06;;;;;;;-0.48;100.00;97264.47;1044769;28;20634;-68
2023/01/25 01:32:20;;;;;;;58.56;18.38;;;;;;;-0.45;100.00;97273.69;1042552;28;20029;-68
2023/01/25 01:32:51;;;;;;;70.93;19.42;;;;;;;-0.44;100.00;97280.44;1041490;28;20021;-70
2023/01/25 01:33:21;;;;;;;61.92;18.65;;;;;;;-0.44;100.00;97280.44;1033730;28;20038;-69
2023/01/25 01:33:53;;;;;;;61.45;20.27;;;;;;;-0.50;100.00;97266.44;1036531;28;20472;-69
2023/01/25 01:34:23;;;;;;;63.88;20.38;;;;;;;-0.49;100.00;97276.56;1038383;28;20052;-69
2023/01/25 01:34:54;;;;;;;59.67;19.33;;;;;;;-0.49;100.00;97273.19;1038878;28;20096;-70
2023/01/25 01:35:24;;;;;;;67.45;20.50;;;;;;;-0.50;100.00;97272.38;1045800;28;20024;-69
2023/01/25 01:35:55;;;;;;;63.17;19.35;;;;;;;-0.43;100.00;97277.72;1034059;28;20033;-69
2023/01/25 01:36:26;;;;;;;57.55;19.00;;;;;;;-0.47;100.00;97278.97;1034388;28;20036;-68
2023/01/25 01:36:57;;;;;;;61.58;19.26;;;;;;;-0.47;100.00;97278.97;1026237;28;20030;-70
2023/01/25 01:37:27;;;;;;;54.90;17.77;;;;;;;-0.51;100.00;97272.53;1026379;28;20500;-68
2023/01/25 01:37:58;;;;;;;60.28;18.88;;;;;;;-0.46;100.00;97279.81;1026428;28;20211;-69
2023/01/25 01:38:28;;;;;;;55.28;20.45;;;;;;;-0.49;100.00;97273.19;1038453;28;20029;-68
2023/01/25 01:38:59;;;;;;;59.08;19.15;;;;;;;-0.42;100.00;97275.94;1036105;28;20710;-69
2023/01/25 01:39:29;;;;;;;65.22;18.58;;;;;;;-0.45;100.00;97274.50;1037922;28;20033;-69
2023/01/25 01:40:00;;;;;;;59.85;19.95;;;;;;;-0.46;100.00;97278.03;1038439;28;20533;-69
2023/01/25 01:40:30;;;;;;;59.90;19.05;;;;;;;-0.46;100.00;97270.31;1035144;28;20041;-68
2023/01/25 01:41:01;;;;;;;64.13;19.95;;;;;;;-0.62;100.00;97247.84;1038214;28;20037;-68
2023/01/25 01:41:31;;;;;;;64.63;19.88;;;;;;;-0.47;100.00;97271.25;1034367;28;20022;-70
2023/01/25 01:42:02;;;;;;;64.90;19.63;;;;;;;-0.47;100.00;97271.25;1034418;28;20025;-69
2023/01/25 01:42:32;;;;;;;58.92;19.38;;;;;;;-0.50;100.00;97266.44;1037861;28;20070;-68
2023/01/25 01:43:05;;;;;;;62.10;18.75;;;;;;;-0.47;100.00;97268.66;1030285;28;20034;-69
2023/01/25 01:43:35;;;;;;;59.86;19.06;;;;;;;-0.48;100.00;97264.47;1034359;28;20105;-69
2023/01/25 01:44:14;;;;;;;80.35;20.63;;;;;;;-0.45;100.00;97268.53;1034311;28;20438;-70
2023/01/25 01:44:52;;;;;;;67.24;18.96;;;;;;;-0.44;100.00;97259.81;1034312;28;20037;-69
2023/01/25 01:45:49;;;;;;;54.84;18.50;;;;;;;-0.44;100.00;97270.94;1032302;28;20042;-72
2023/01/25 01:46:40;;;;;;;64.40;17.38;;;;;;;-0.45;100.00;97268.53;1042535;28;20123;-68
2023/01/25 01:47:12;;;;;;;;;;;;;;;-0.46;100.00;97269.50;1035623;28;20116;-69
2023/01/25 01:47:47;;;;;;;54.50;15.74;;;;;;;-0.48;100.00;97265.28;1030205;28;20633;-68
2023/01/25 01:48:23;;;;;;;59.40;17.50;;;;;;;-0.46;100.00;97262.56;1034313;28;20038;-69
2023/01/25 01:49:06;;;;;;;56.20;18.00;;;;;;;-0.49;100.00;97263.69;1034408;28;20447;-70
2023/01/25 01:49:36;;;;;;;54.36;17.28;;;;;;;-0.52;100.00;97258.03;1037323;28;20072;-69
2023/01/25 01:50:20;;;;;;;58.78;17.30;;;;;;;-0.47;100.00;97266.09;1043705;28;20039;-68
2023/01/25 01:50:52;;;;;;;63.92;17.48;;;;;;;-0.51;100.00;97265.59;1038535;28;20017;-69
2023/01/25 01:51:23;;;;;;;54.68;17.62;;;;;;;-0.49;100.00;97266.25;1021992;28;20078;-67
2023/01/25 01:51:58;;;;;;;57.13;17.00;;;;;;;-0.51;100.00;97270.75;1026222;28;20121;-69
2023/01/25 01:52:30;;;;;;;56.06;17.86;;;;;;;-0.50;100.00;97266.44;1031467;28;20896;-70
2023/01/25 01:53:00;;;;;;;63.00;19.08;;;;;;;-0.48;100.00;97267.06;1030196;28;20715;-69
2023/01/25 01:53:31;;;;;;;63.00;18.50;;;;;;;-0.54;100.00;97258.19;1026080;28;20091;-67
2023/01/25 01:54:02;;;;;;;56.15;18.60;;;;;;;-0.46;100.00;97270.31;1034313;28;20418;-70
2023/01/25 01:54:40;;;;;;;63.28;17.94;;;;;;;-0.51;100.00;97259.63;1030399;28;20018;-70
2023/01/25 01:55:13;;;;;;;63.16;19.52;;;;;;;-0.49;100.00;97265.44;1034635;28;20032;-71
2023/01/25 01:55:43;;;;;;;69.22;18.56;;;;;;;-0.49;100.00;97260.28;1032337;28;20022;-71
2023/01/25 01:56:16;;;;;;;60.72;19.08;;;;;;;-0.48;100.00;97265.28;1038447;28;20095;-68
2023/01/25 01:57:05;;;;;;;67.54;19.86;;;;;;;-0.44;100.00;97270.13;1036829;28;20017;-68
2023/01/25 01:57:39;;;;;;;68.52;19.38;;;;;;;-0.46;100.00;97265.16;1037832;28;20059;-68
2023/01/25 01:58:09;;;;;;;59.98;18.08;;;;;;;-0.46;100.00;97267.72;1038350;28;20026;-68
2023/01/25 01:58:40;;;;;;;63.20;18.33;;;;;;;-0.48;100.00;97260.13;1040107;28;20094;-68
2023/01/25 01:59:10;;;;;;;64.40;18.52;;;;;;;-0.48;100.00;97256.75;1037963;28;20020;-70
2023/01/25 01:59:54;;;;;;;60.15;17.65;;;;;;;-0.49;100.00;97257.72;1034168;28;20589;-68
2023/01/25 02:00:27;;;;;;;68.36;18.20;;;;;;;-0.45;100.00;97260.78;1030293;28;20113;-69
2023/01/25 02:00:57;;;;;;;56.34;17.46;;;;;;;-0.42;100.00;97269.03;1030162;28;20030;-69
2023/01/25 02:01:28;;;;;;;59.90;17.92;;;;;;;-0.44;100.00;97264.97;1030265;28;20022;-69
2023/01/25 02:01:58;;;;;;;57.38;18.70;;;;;;;-0.49;100.00;97258.53;1030663;28;20104;-69
2023/01/25 02:02:29;;;;;;;53.08;16.45;;;;;;;-0.44;100.00;97262.41;1030356;28;20614;-70
2023/01/25 02:02:59;;;;;;;65.10;19.10;;;;;;;-0.46;100.00;97267.72;1034209;28;20033;-67
2023/01/25 02:03:30;;;;;;;61.45;18.92;;;;;;;-0.46;100.00;97269.50;1033701;28;20694;-68
2023/01/25 02:04:00;;;;;;;56.17;17.15;;;;;;;-0.49;100.00;97268.84;1036261;28;20029;-68
2023/01/25 02:04:31;;;;;;;59.90;18.40;;;;;;;-0.49;100.00;97268.03;1032705;28;20037;-70
2023/01/25 02:05:03;;;;;;;64.57;18.77;;;;;;;-0.49;100.00;97268.03;1026243;28;20238;-69
2023/01/25 02:05:56;;;;;;;56.92;16.30;;;;;;;-0.51;100.00;97265.59;1025779;28;20097;-70
2023/01/25 02:06:39;;;;;;;60.24;17.16;;;;;;;-0.65;100.00;97245.56;1037586;28;20628;-70
2023/01/25 02:07:30;;;;;;;63.34;18.14;;;;;;;-0.52;100.00;97263.97;1038598;28;20044;-68
2023/01/25 02:08:01;;;;;;;58.68;17.36;;;;;;;-0.54;100.00;97265.94;1046232;28;20043;-70
2023/01/25 02:08:33;;;;;;;64.50;17.48;;;;;;;-0.50;100.00;97276.75;1038324;28;20048;-68
2023/01/25 02:09:03;;;;;;;67.88;17.50;;;;;;;-0.49;100.00;97270.59;1034655;28;20022;-68
2023/01/25 02:09:34;;;;;;;64.82;18.02;;;;;;;-0.50;100.00;97271.59;1032004;28;20026;-66
2023/01/25 02:10:06;;;;;;;69.60;19.23;;;;;;;-0.51;100.00;97270.75;1034311;28;20029;-69
2023/01/25 02:10:37;;;;;;;60.64;17.70;;;;;;;-0.54;100.00;97267.66;1030555;28;20816;-68
2023/01/25 02:11:07;;;;;;;64.97;18.23;;;;;;;-0.55;100.00;97259.13;1034449;28;20044;-68
2023/01/25 02:11:37;;;;;;;72.30;18.60;;;;;;;-0.51;100.00;97262.22;1038585;28;21066;-67
2023/01/25 02:12:08;;;;;;;65.60;20.13;;;;;;;-0.54;100.00;97257.34;1033513;28;20088;-68
2023/01/25 02:12:38;;;;;;;68.70;18.33;;;;;;;-0.52;100.00;97261.41;1034729;28;20022;-71
2023/01/25 02:13:09;;;;;;;67.93;18.23;;;;;;;-0.52;100.00;97263.19;1034341;28;20022;-71
2023/01/25 02:13:39;;;;;;;68.80;18.65;;;;;;;-0.55;100.00;97258.34;1034002;28;20061;-67
2023/01/25 02:14:10;;;;;;;63.83;18.73;;;;;;;-0.49;100.00;97265.44;1034514;28;20111;-67
2023/01/25 02:14:47;;;;;;;64.95;19.40;;;;;;;-0.49;100.00;97273.19;1033173;28;20026;-68
2023/01/25 02:15:17;;;;;;;60.02;17.56;;;;;;;-0.49;100.00;97265.44;1034413;28;20021;-68
2023/01/25 02:15:51;;;;;;;66.80;18.98;;;;;;;-0.46;100.00;97272.88;1035538;28;20530;-67
2023/01/25 02:16:23;;;;;;;59.44;18.18;;;;;;;-0.54;100.00;97258.19;1033825;28;20022;-68
2023/01/25 02:16:54;;;;;;;66.94;18.02;;;;;;;-0.49;100.00;97257.72;1041070;28;20496;-67
2023/01/25 02:17:32;;;;;;;70.10;20.14;;;;;;;-0.47;100.00;97268.66;1034257;28;20018;-68
2023/01/25 02:18:03;;;;;;;65.04;18.10;;;;;;;-0.43;100.00;97272.56;1033874;28;20042;-70
2023/01/25 02:18:33;;;;;;;63.83;18.50;;;;;;;-0.48;100.00;97265.28;1036679;28;20065;-68
2023/01/25 02:19:04;;;;;;;60.53;18.10;;;;;;;-0.48;100.00;97259.31;1035228;28;20502;-68
2023/01/25 02:19:34;;;;;;;71.82;19.25;;;;;;;-0.43;100.00;97262.25;1030470;28;20038;-68
2023/01/25 02:20:20;;;;;;;58.03;17.92;;;;;;;-0.43;100.00;97272.56;1034236;28;20034;-68
2023/01/25 02:20:51;;;;;;;67.32;18.28;;;;;;;-0.46;100.00;97262.56;1034110;28;20026;-68
2023/01/25 02:21:22;;;;;;;65.74;18.30;;;;;;;-0.40;100.00;97267.09;1034372;28;20030;-70
2023/01/25 02:21:54;;;;;;;67.38;18.26;;;;;;;-0.38;100.00;97267.75;1034283;28;20053;-68
2023/01/25 02:22:38;;;;;;;68.10;17.26;;;;;;;-0.39;100.00;97268.72;1035992;28;20025;-68
2023/01/25 02:23:23;;;;;;;63.94;18.18;;;;;;;-0.38;100.00;97275.47;1026913;28;20475;-68
2023/01/25 02:23:58;;;;;;;61.34;17.26;;;;;;;-0.39;100.00;97283.38;1036487;28;20072;-67
2023/01/25 02:24:30;;;;;;;62.46;17.18;;;;;;;-0.47;100.00;97266.09;1039380;28;20434;-67
2023/01/25 02:25:04;;;;;;;64.20;18.14;;;;;;;-0.45;100.00;97265.94;1037663;28;20629;-68
2023/01/25 02:25:35;;;;;;;69.28;17.90;;;;;;;-0.43;100.00;97270.00;1038531;28;20503;-69
2023/01/25 02:26:05;;;;;;;70.88;18.35;;;;;;;-0.50;100.00;97269.00;1039438;28;20033;-69
2023/01/25 02:26:36;;;;;;;64.57;17.05;;;;;;;-0.44;100.00;97276.09;1041155;28;20076;-68